createdAt,value
2019-03-26T00:00:52.285Z,5.90
2019-03-26T00:01:57.272Z,5.90
2019-03-26T00:03:02.582Z,5.80
2019-03-26T00:04:07.544Z,5.80
2019-03-26T00:05:12.634Z,5.90
2019-03-26T00:06:17.610Z,5.80
2019-03-26T00:07:24.152Z,5.80
2019-03-26T00:08:29.090Z,5.80
2019-03-26T00:09:34.076Z,5.80
2019-03-26T00:10:38.995Z,5.90
2019-03-26T00:11:44.102Z,5.90
2019-03-26T00:12:49.368Z,5.90
2019-03-26T00:13:56.405Z,5.90
2019-03-26T00:15:01.327Z,5.90
2019-03-26T00:16:06.417Z,5.90
2019-03-26T00:17:11.544Z,5.90
2019-03-26T00:18:16.459Z,5.90
2019-03-26T00:19:21.507Z,5.90
2019-03-26T00:20:26.765Z,5.90
2019-03-26T00:21:31.673Z,5.90
2019-03-26T00:22:36.704Z,5.90
2019-03-26T00:23:41.666Z,5.90
2019-03-26T00:24:46.704Z,5.90
2019-03-26T00:25:51.658Z,5.90
2019-03-26T00:26:56.554Z,5.80
2019-03-26T00:28:01.443Z,5.80
2019-03-26T00:29:06.380Z,5.80
2019-03-26T00:30:12.072Z,5.90
2019-03-26T00:31:17.016Z,5.80
2019-03-26T00:32:23.609Z,5.80
2019-03-26T00:33:36.255Z,5.80
2019-03-26T00:34:35.550Z,5.80
2019-03-26T00:35:40.667Z,5.80
2019-03-26T00:36:45.709Z,5.80
2019-03-26T00:37:50.626Z,5.80
2019-03-26T00:38:55.510Z,5.80
2019-03-26T00:40:00.496Z,5.80
2019-03-26T00:41:05.566Z,5.90
2019-03-26T00:42:10.536Z,5.80
2019-03-26T00:43:15.647Z,5.80
2019-03-26T00:44:20.616Z,5.80
2019-03-26T00:45:25.788Z,5.80
2019-03-26T00:46:33.918Z,5.80
2019-03-26T00:47:38.824Z,5.90
2019-03-26T00:48:43.968Z,5.90
2019-03-26T00:49:48.910Z,5.80
2019-03-26T00:50:53.967Z,5.70
2019-03-26T00:51:59.212Z,5.80
2019-03-26T00:53:04.251Z,5.80
2019-03-26T00:54:09.139Z,5.80
2019-03-26T00:55:22.565Z,5.70
2019-03-26T00:56:21.574Z,5.70
2019-03-26T00:57:26.695Z,5.70
2019-03-26T00:58:31.584Z,5.70
2019-03-26T00:59:36.589Z,5.70
2019-03-26T01:00:42.905Z,5.70
2019-03-26T01:01:47.828Z,5.70
2019-03-26T01:02:53.229Z,5.70
2019-03-26T01:03:58.224Z,5.70
2019-03-26T01:05:03.251Z,5.70
2019-03-26T01:06:08.252Z,5.70
2019-03-26T01:07:13.646Z,5.70
2019-03-26T01:08:18.548Z,5.60
2019-03-26T01:09:23.709Z,5.60
2019-03-26T01:10:29.004Z,5.60
2019-03-26T01:11:34.119Z,5.60
2019-03-26T01:12:39.128Z,5.70
2019-03-26T01:13:44.091Z,5.70
2019-03-26T01:14:49.064Z,5.70
2019-03-26T01:15:54.243Z,5.70
2019-03-26T01:16:59.374Z,5.70
2019-03-26T01:18:04.414Z,5.60
2019-03-26T01:19:09.336Z,5.70
2019-03-26T01:20:14.827Z,5.70
2019-03-26T01:21:19.840Z,5.70
2019-03-26T01:22:24.800Z,5.70
2019-03-26T01:23:30.097Z,5.60
2019-03-26T01:24:35.440Z,5.70
2019-03-26T01:25:40.943Z,5.60
2019-03-26T01:26:46.158Z,5.60
2019-03-26T01:27:51.358Z,5.60
2019-03-26T01:28:57.953Z,5.60
2019-03-26T01:30:03.104Z,5.60
2019-03-26T01:31:08.358Z,5.60
2019-03-26T01:32:13.694Z,5.60
2019-03-26T01:33:19.023Z,5.60
2019-03-26T01:34:24.326Z,5.60
2019-03-26T01:35:29.733Z,5.60
2019-03-26T01:36:35.020Z,5.50
2019-03-26T01:37:40.603Z,5.50
2019-03-26T01:38:45.833Z,5.50
2019-03-26T01:39:51.097Z,5.50
2019-03-26T01:40:56.462Z,5.50
2019-03-26T01:42:01.730Z,5.60
2019-03-26T01:43:06.955Z,5.50
2019-03-26T01:44:12.449Z,5.50
2019-03-26T01:45:17.960Z,5.50
2019-03-26T01:46:23.189Z,5.50
2019-03-26T01:47:28.658Z,5.50
2019-03-26T01:48:34.015Z,5.40
2019-03-26T01:49:39.236Z,5.40
2019-03-26T01:50:44.506Z,5.40
2019-03-26T01:51:49.754Z,5.30
2019-03-26T01:52:55.036Z,5.30
2019-03-26T01:54:00.243Z,5.40
2019-03-26T01:55:05.670Z,5.30
2019-03-26T01:56:11.079Z,5.40
2019-03-26T01:57:16.602Z,5.30
2019-03-26T01:58:21.836Z,5.40
2019-03-26T01:59:27.235Z,5.40
2019-03-26T02:00:32.569Z,5.30
2019-03-26T02:01:37.811Z,5.30
2019-03-26T02:02:43.102Z,5.40
2019-03-26T02:03:48.360Z,5.40
2019-03-26T02:05:00.122Z,5.30
2019-03-26T02:06:02.807Z,5.40
2019-03-26T02:07:08.157Z,5.40
2019-03-26T02:08:13.748Z,5.40
2019-03-26T02:09:19.028Z,5.30
2019-03-26T02:10:24.374Z,5.40
2019-03-26T02:11:29.598Z,5.30
2019-03-26T02:12:34.867Z,5.40
2019-03-26T02:13:42.003Z,5.40
2019-03-26T02:14:46.945Z,5.30
2019-03-26T02:15:52.156Z,5.40
2019-03-26T02:16:57.378Z,5.40
2019-03-26T02:18:02.886Z,5.30
2019-03-26T02:19:08.081Z,5.30
2019-03-26T02:20:13.403Z,5.30
2019-03-26T02:21:18.760Z,5.30
2019-03-26T02:22:24.012Z,5.30
2019-03-26T02:23:30.545Z,5.20
2019-03-26T02:24:35.738Z,5.20
2019-03-26T02:25:41.295Z,5.20
2019-03-26T02:26:46.619Z,5.20
2019-03-26T02:27:51.834Z,5.20
2019-03-26T02:28:57.086Z,5.20
2019-03-26T02:30:02.441Z,5.20
2019-03-26T02:31:07.652Z,5.20
2019-03-26T02:32:13.004Z,5.20
2019-03-26T02:33:18.361Z,5.20
2019-03-26T02:34:23.728Z,5.20
2019-03-26T02:35:28.977Z,5.10
2019-03-26T02:36:34.281Z,5.10
2019-03-26T02:37:39.603Z,5.10
2019-03-26T02:38:44.851Z,5.10
2019-03-26T02:39:50.032Z,5.10
2019-03-26T02:40:55.347Z,5.10
2019-03-26T02:42:00.619Z,5.20
2019-03-26T02:43:05.808Z,5.20
2019-03-26T02:44:11.250Z,5.20
2019-03-26T02:45:16.552Z,5.20
2019-03-26T02:46:21.818Z,5.20
2019-03-26T02:47:27.107Z,5.20
2019-03-26T02:48:32.553Z,5.20
2019-03-26T02:49:37.911Z,5.30
2019-03-26T02:50:43.119Z,5.20
2019-03-26T02:51:48.349Z,5.20
2019-03-26T02:52:53.658Z,5.20
2019-03-26T02:53:58.923Z,5.30
2019-03-26T02:55:04.279Z,5.30
2019-03-26T02:56:09.637Z,5.30
2019-03-26T02:57:15.193Z,5.30
2019-03-26T02:58:20.442Z,5.40
2019-03-26T02:59:25.659Z,5.40
2019-03-26T03:00:31.021Z,5.40
2019-03-26T03:01:36.289Z,5.40
2019-03-26T03:02:41.451Z,5.40
2019-03-26T03:03:46.702Z,5.30
2019-03-26T03:04:52.204Z,5.40
2019-03-26T03:05:57.505Z,5.40
2019-03-26T03:07:02.843Z,5.40
2019-03-26T03:08:08.249Z,5.30
2019-03-26T03:09:13.471Z,5.40
2019-03-26T03:10:19.029Z,5.30
2019-03-26T03:11:24.273Z,5.30
2019-03-26T03:12:29.461Z,5.30
2019-03-26T03:13:34.691Z,5.30
2019-03-26T03:14:40.022Z,5.30
2019-03-26T03:15:47.608Z,5.20
2019-03-26T03:16:53.003Z,5.30
2019-03-26T03:17:58.181Z,5.30
2019-03-26T03:19:03.393Z,5.30
2019-03-26T03:20:08.881Z,5.40
2019-03-26T03:21:14.204Z,5.40
2019-03-26T03:22:19.743Z,5.40
2019-03-26T03:23:25.139Z,5.40
2019-03-26T03:24:30.429Z,5.30
2019-03-26T03:25:35.659Z,5.30
2019-03-26T03:26:40.885Z,5.40
2019-03-26T03:27:46.233Z,5.40
2019-03-26T03:28:51.531Z,5.40
2019-03-26T03:29:56.782Z,5.40
2019-03-26T03:31:02.238Z,5.40
2019-03-26T03:32:07.714Z,5.40
2019-03-26T03:33:12.920Z,5.30
2019-03-26T03:34:18.353Z,5.30
2019-03-26T03:35:23.598Z,5.40
2019-03-26T03:36:29.064Z,5.30
2019-03-26T03:37:34.278Z,5.30
2019-03-26T03:38:41.267Z,5.20
2019-03-26T03:39:46.444Z,5.30
2019-03-26T03:40:51.732Z,5.20
2019-03-26T03:41:56.931Z,5.30
2019-03-26T03:43:02.270Z,5.30
2019-03-26T03:44:07.663Z,5.30
2019-03-26T03:45:13.498Z,5.20
2019-03-26T03:46:18.786Z,5.30
2019-03-26T03:47:27.188Z,5.30
2019-03-26T03:48:34.728Z,5.30
2019-03-26T03:49:40.092Z,5.40
2019-03-26T03:50:46.255Z,5.40
2019-03-26T03:51:53.036Z,5.40
2019-03-26T03:53:00.288Z,5.40
2019-03-26T03:54:05.696Z,5.40
2019-03-26T03:55:11.602Z,5.40
2019-03-26T03:56:20.104Z,5.40
2019-03-26T03:57:27.438Z,5.40
2019-03-26T03:58:35.199Z,5.40
2019-03-26T03:59:42.603Z,5.40
2019-03-26T04:00:47.890Z,5.40
2019-03-26T04:01:53.129Z,5.40
2019-03-26T04:02:58.430Z,5.40
2019-03-26T04:04:03.618Z,5.40
2019-03-26T04:05:09.011Z,5.40
2019-03-26T04:06:14.236Z,5.40
2019-03-26T04:07:19.700Z,5.40
2019-03-26T04:08:24.894Z,5.30
2019-03-26T04:09:30.122Z,5.30
2019-03-26T04:10:35.446Z,5.30
2019-03-26T04:11:40.703Z,5.30
2019-03-26T04:12:46.071Z,5.30
2019-03-26T04:13:51.463Z,5.30
2019-03-26T04:14:56.716Z,5.30
2019-03-26T04:16:01.983Z,5.30
2019-03-26T04:17:07.305Z,5.30
2019-03-26T04:18:12.476Z,5.30
2019-03-26T04:19:17.735Z,5.30
2019-03-26T04:20:23.020Z,5.20
2019-03-26T04:21:28.270Z,5.20
2019-03-26T04:22:33.636Z,5.20
2019-03-26T04:23:38.893Z,5.20
2019-03-26T04:24:44.239Z,5.20
2019-03-26T04:25:49.569Z,5.20
2019-03-26T04:26:54.813Z,5.20
2019-03-26T04:28:00.288Z,5.20
2019-03-26T04:29:05.499Z,5.20
2019-03-26T04:30:11.354Z,5.20
2019-03-26T04:31:16.618Z,5.20
2019-03-26T04:32:22.207Z,5.20
2019-03-26T04:33:27.450Z,5.10
2019-03-26T04:34:32.841Z,5.10
2019-03-26T04:35:38.083Z,5.10
2019-03-26T04:36:43.337Z,5.10
2019-03-26T04:37:48.561Z,5.10
2019-03-26T04:38:53.855Z,5.10
2019-03-26T04:39:59.110Z,5.20
2019-03-26T04:41:04.330Z,5.20
2019-03-26T04:42:09.709Z,5.20
2019-03-26T04:43:18.719Z,5.20
2019-03-26T04:44:22.391Z,5.20
2019-03-26T04:45:27.705Z,5.20
2019-03-26T04:46:33.141Z,5.20
2019-03-26T04:47:38.348Z,5.20
2019-03-26T04:48:43.728Z,5.20
2019-03-26T04:49:48.929Z,5.20
2019-03-26T04:50:54.251Z,5.20
2019-03-26T04:51:59.732Z,5.20
2019-03-26T04:53:04.984Z,5.20
2019-03-26T04:54:10.267Z,5.20
2019-03-26T04:55:15.601Z,5.20
2019-03-26T04:56:20.858Z,5.30
2019-03-26T04:57:26.039Z,5.20
2019-03-26T04:58:31.327Z,5.20
2019-03-26T04:59:36.849Z,5.20
2019-03-26T05:00:42.172Z,5.20
2019-03-26T05:01:47.427Z,5.20
2019-03-26T05:02:52.623Z,5.10
2019-03-26T05:03:57.849Z,5.20
2019-03-26T05:05:03.072Z,5.20
2019-03-26T05:06:08.368Z,5.20
2019-03-26T05:07:13.729Z,5.20
2019-03-26T05:08:19.006Z,5.20
2019-03-26T05:09:24.399Z,5.20
2019-03-26T05:10:29.666Z,5.20
2019-03-26T05:11:34.906Z,5.20
2019-03-26T05:12:40.055Z,5.20
2019-03-26T05:13:45.660Z,5.20
2019-03-26T05:14:50.936Z,5.20
2019-03-26T05:15:56.139Z,5.20
2019-03-26T05:17:01.361Z,5.20
2019-03-26T05:18:06.810Z,5.20
2019-03-26T05:19:12.210Z,5.20
2019-03-26T05:20:17.485Z,5.10
2019-03-26T05:21:22.813Z,5.20
2019-03-26T05:22:28.293Z,5.20
2019-03-26T05:23:33.577Z,5.20
2019-03-26T05:24:39.000Z,5.20
2019-03-26T05:25:44.449Z,5.20
2019-03-26T05:26:49.687Z,5.20
2019-03-26T05:27:54.925Z,5.20
2019-03-26T05:29:00.152Z,5.20
2019-03-26T05:30:06.161Z,5.20
2019-03-26T05:31:11.530Z,5.30
2019-03-26T05:32:16.843Z,5.20
2019-03-26T05:33:22.087Z,5.20
2019-03-26T05:34:27.279Z,5.20
2019-03-26T05:35:32.595Z,5.30
2019-03-26T05:36:50.354Z,5.30
2019-03-26T05:37:44.888Z,5.30
2019-03-26T05:38:50.114Z,5.30
2019-03-26T05:39:55.397Z,5.30
2019-03-26T05:41:00.652Z,5.30
2019-03-26T05:42:05.926Z,5.30
2019-03-26T05:43:11.299Z,5.30
2019-03-26T05:44:16.651Z,5.30
2019-03-26T05:45:21.916Z,5.30
2019-03-26T05:46:45.856Z,5.30
2019-03-26T05:47:51.125Z,5.30
2019-03-26T05:48:56.216Z,5.30
2019-03-26T05:50:01.408Z,5.30
2019-03-26T05:51:06.770Z,5.30
2019-03-26T05:52:12.010Z,5.30
2019-03-26T05:53:17.248Z,5.40
2019-03-26T05:54:22.908Z,5.40
2019-03-26T05:55:28.103Z,5.40
2019-03-26T05:56:33.705Z,5.50
2019-03-26T05:57:39.146Z,5.50
2019-03-26T05:58:44.320Z,5.50
2019-03-26T05:59:49.551Z,5.50
2019-03-26T06:00:54.877Z,5.50
2019-03-26T06:02:13.455Z,5.50
2019-03-26T06:03:08.193Z,5.60
2019-03-26T06:04:13.489Z,5.60
2019-03-26T06:05:18.856Z,5.60
2019-03-26T06:06:24.291Z,5.60
2019-03-26T06:07:31.298Z,5.60
2019-03-26T06:08:36.612Z,5.60
2019-03-26T06:09:41.855Z,5.60
2019-03-26T06:10:47.218Z,5.60
2019-03-26T06:11:52.492Z,5.60
2019-03-26T06:12:57.740Z,5.60
2019-03-26T06:14:03.035Z,5.70
2019-03-26T06:15:08.732Z,5.70
2019-03-26T06:16:14.022Z,5.70
2019-03-26T06:17:19.705Z,5.70
2019-03-26T06:18:25.038Z,5.80
2019-03-26T06:19:30.216Z,5.90
2019-03-26T06:20:35.679Z,6.00
2019-03-26T06:21:41.040Z,6.10
2019-03-26T06:22:46.337Z,6.10
2019-03-26T06:23:53.739Z,6.20
2019-03-26T06:24:58.415Z,6.20
2019-03-26T06:26:03.697Z,6.20
2019-03-26T06:27:08.963Z,6.20
2019-03-26T06:28:14.237Z,6.20
2019-03-26T06:29:19.843Z,6.20
2019-03-26T06:30:25.406Z,6.20
2019-03-26T06:31:30.601Z,6.30
2019-03-26T06:32:35.953Z,6.30
2019-03-26T06:33:41.197Z,6.30
2019-03-26T06:34:46.440Z,6.40
2019-03-26T06:35:51.707Z,6.40
2019-03-26T06:36:56.982Z,6.40
2019-03-26T06:38:02.274Z,6.40
2019-03-26T06:39:09.031Z,6.40
2019-03-26T06:40:14.530Z,6.40
2019-03-26T06:41:19.842Z,6.40
2019-03-26T06:42:25.098Z,6.40
2019-03-26T06:43:30.351Z,6.40
2019-03-26T06:44:35.889Z,6.40
2019-03-26T06:45:41.172Z,6.40
2019-03-26T06:46:46.593Z,6.40
2019-03-26T06:47:51.865Z,6.50
2019-03-26T06:48:57.228Z,6.50
2019-03-26T06:50:02.548Z,6.50
2019-03-26T06:51:07.955Z,6.50
2019-03-26T06:52:13.465Z,6.50
2019-03-26T06:53:18.697Z,6.60
2019-03-26T06:54:24.263Z,6.60
2019-03-26T06:55:29.607Z,6.60
2019-03-26T06:56:34.944Z,6.60
2019-03-26T06:57:40.318Z,6.60
2019-03-26T06:58:45.618Z,6.70
2019-03-26T06:59:51.217Z,6.70
2019-03-26T07:00:56.393Z,6.70
2019-03-26T07:02:01.804Z,6.70
2019-03-26T07:03:07.753Z,6.70
2019-03-26T07:04:13.166Z,6.70
2019-03-26T07:05:18.502Z,6.70
2019-03-26T07:06:24.037Z,6.80
2019-03-26T07:07:31.694Z,6.80
2019-03-26T07:08:39.247Z,6.80
2019-03-26T07:09:44.503Z,6.80
2019-03-26T07:10:49.847Z,6.80
2019-03-26T07:11:55.183Z,6.80
2019-03-26T07:13:00.673Z,6.90
2019-03-26T07:14:05.899Z,7.00
2019-03-26T07:15:12.710Z,7.00
2019-03-26T07:16:18.099Z,7.00
2019-03-26T07:17:23.622Z,7.00
2019-03-26T07:18:28.881Z,6.90
2019-03-26T07:19:34.388Z,6.90
2019-03-26T07:20:39.844Z,7.00
2019-03-26T07:21:49.769Z,7.00
2019-03-26T07:22:52.042Z,7.00
2019-03-26T07:23:57.222Z,6.90
2019-03-26T07:25:02.500Z,7.00
2019-03-26T07:26:07.765Z,7.10
2019-03-26T07:27:13.212Z,7.20
2019-03-26T07:28:18.576Z,7.20
2019-03-26T07:29:24.087Z,7.40
2019-03-26T07:30:47.535Z,7.40
2019-03-26T07:31:52.919Z,7.50
2019-03-26T07:32:58.287Z,7.50
2019-03-26T07:34:03.593Z,7.60
2019-03-26T07:35:09.163Z,7.50
2019-03-26T07:36:14.396Z,7.60
2019-03-26T07:37:19.731Z,7.60
2019-03-26T07:38:24.942Z,7.70
2019-03-26T07:39:30.327Z,7.80
2019-03-26T07:40:35.720Z,7.80
2019-03-26T07:41:41.563Z,7.80
2019-03-26T07:42:46.806Z,7.70
2019-03-26T07:43:52.239Z,7.70
2019-03-26T07:44:57.538Z,7.70
2019-03-26T07:46:02.798Z,7.80
2019-03-26T07:47:08.041Z,7.90
2019-03-26T07:48:13.482Z,7.90
2019-03-26T07:49:18.795Z,7.90
2019-03-26T07:50:24.064Z,8.00
2019-03-26T07:51:29.327Z,8.00
2019-03-26T07:52:34.869Z,8.10
2019-03-26T07:53:40.339Z,8.10
2019-03-26T07:54:45.714Z,8.10
2019-03-26T07:55:51.062Z,8.10
2019-03-26T07:56:56.261Z,8.20
2019-03-26T07:58:01.481Z,8.40
2019-03-26T07:59:06.772Z,8.50
2019-03-26T08:00:12.417Z,8.60
2019-03-26T08:01:17.700Z,8.70
2019-03-26T08:02:23.239Z,8.80
2019-03-26T08:03:29.010Z,9.20
2019-03-26T08:04:42.603Z,9.40
2019-03-26T08:05:47.902Z,9.50
2019-03-26T08:06:53.272Z,9.70
2019-03-26T08:07:58.867Z,10.00
2019-03-26T08:09:05.365Z,10.20
2019-03-26T08:10:10.782Z,10.30
2019-03-26T08:11:16.139Z,10.50
2019-03-26T08:12:21.448Z,10.40
2019-03-26T08:13:27.135Z,10.40
2019-03-26T08:14:32.404Z,10.40
2019-03-26T08:15:37.638Z,10.50
2019-03-26T08:16:42.916Z,10.40
2019-03-26T08:17:48.630Z,10.40
2019-03-26T08:18:53.839Z,10.40
2019-03-26T08:19:59.162Z,10.50
2019-03-26T08:21:04.440Z,10.50
2019-03-26T08:22:09.823Z,10.50
2019-03-26T08:23:15.175Z,10.60
2019-03-26T08:24:20.377Z,10.70
2019-03-26T08:25:25.930Z,11.00
2019-03-26T08:26:31.231Z,11.20
2019-03-26T08:27:36.435Z,11.40
2019-03-26T08:28:41.637Z,11.40
2019-03-26T08:29:46.838Z,11.40
2019-03-26T08:30:51.991Z,11.50
2019-03-26T08:31:57.198Z,11.30
2019-03-26T08:33:02.488Z,11.20
2019-03-26T08:34:07.761Z,11.20
2019-03-26T08:35:13.082Z,11.20
2019-03-26T08:36:18.404Z,11.30
2019-03-26T08:37:24.431Z,11.10
2019-03-26T08:38:33.273Z,11.00
2019-03-26T08:39:38.131Z,10.80
2019-03-26T08:40:43.609Z,10.60
2019-03-26T08:41:50.227Z,10.70
2019-03-26T08:42:55.752Z,10.90
2019-03-26T08:44:01.385Z,11.00
2019-03-26T08:45:07.415Z,11.30
2019-03-26T08:46:12.708Z,11.70
2019-03-26T08:47:18.017Z,12.00
2019-03-26T08:48:23.360Z,12.20
2019-03-26T08:49:30.839Z,12.40
2019-03-26T08:50:35.958Z,12.50
2019-03-26T08:51:41.281Z,12.70
2019-03-26T08:52:46.542Z,12.60
2019-03-26T08:53:52.372Z,12.70
2019-03-26T08:54:58.336Z,12.60
2019-03-26T08:56:03.564Z,12.40
2019-03-26T08:57:08.786Z,12.20
2019-03-26T08:58:14.088Z,12.40
2019-03-26T08:59:19.521Z,12.60
2019-03-26T09:00:24.696Z,12.90
2019-03-26T09:01:30.041Z,13.00
2019-03-26T09:02:35.442Z,13.00
2019-03-26T09:03:40.602Z,12.80
2019-03-26T09:04:45.805Z,12.90
2019-03-26T09:05:51.127Z,12.80
2019-03-26T09:06:56.438Z,12.70
2019-03-26T09:08:01.806Z,12.50
2019-03-26T09:09:08.673Z,12.20
2019-03-26T09:10:14.277Z,11.90
2019-03-26T09:11:19.772Z,11.80
2019-03-26T09:12:25.147Z,11.70
2019-03-26T09:13:30.505Z,11.40
2019-03-26T09:14:36.126Z,11.10
2019-03-26T09:15:41.453Z,11.00
2019-03-26T09:16:46.734Z,10.90
2019-03-26T09:17:52.262Z,10.70
2019-03-26T09:18:58.640Z,10.60
2019-03-26T09:20:03.911Z,10.30
2019-03-26T09:21:09.087Z,10.10
2019-03-26T09:22:14.833Z,10.00
2019-03-26T09:23:20.187Z,10.00
2019-03-26T09:24:25.491Z,10.10
2019-03-26T09:25:30.831Z,10.10
2019-03-26T09:26:36.424Z,9.90
2019-03-26T09:27:41.703Z,9.80
2019-03-26T09:28:47.976Z,9.60
2019-03-26T09:29:53.982Z,9.50
2019-03-26T09:30:59.107Z,9.30
2019-03-26T09:32:04.443Z,9.20
2019-03-26T09:33:09.903Z,9.10
2019-03-26T09:34:15.172Z,9.00
2019-03-26T09:35:21.663Z,8.90
2019-03-26T09:36:26.973Z,8.80
2019-03-26T09:37:32.357Z,8.70
2019-03-26T09:38:39.184Z,8.80
2019-03-26T09:39:44.987Z,8.80
2019-03-26T09:40:50.111Z,8.70
2019-03-26T09:41:55.298Z,8.80
2019-03-26T09:43:00.587Z,8.80
2019-03-26T09:44:05.816Z,8.80
2019-03-26T09:45:11.957Z,8.60
2019-03-26T09:46:17.278Z,8.50
2019-03-26T09:47:22.567Z,8.50
2019-03-26T09:48:29.262Z,8.40
2019-03-26T09:49:34.553Z,8.40
2019-03-26T09:50:39.781Z,8.40
2019-03-26T09:51:45.088Z,8.50
2019-03-26T09:52:50.342Z,8.50
2019-03-26T09:53:55.575Z,8.50
2019-03-26T09:55:00.846Z,8.60
2019-03-26T09:56:06.235Z,8.70
2019-03-26T09:57:11.533Z,8.80
2019-03-26T09:58:16.823Z,8.80
2019-03-26T09:59:22.012Z,8.90
2019-03-26T10:00:27.364Z,9.00
2019-03-26T10:01:32.768Z,9.10
2019-03-26T10:02:38.501Z,9.20
2019-03-26T10:03:43.730Z,9.30
2019-03-26T10:04:48.977Z,9.50
2019-03-26T10:05:54.409Z,9.70
2019-03-26T10:06:59.653Z,9.80
2019-03-26T10:08:04.857Z,9.90
2019-03-26T10:09:10.193Z,9.90
2019-03-26T10:10:16.004Z,10.00
2019-03-26T10:11:21.198Z,10.00
2019-03-26T10:12:26.516Z,10.10
2019-03-26T10:13:31.679Z,10.10
2019-03-26T10:14:36.927Z,10.10
2019-03-26T10:15:42.244Z,10.10
2019-03-26T10:16:47.486Z,10.10
2019-03-26T10:17:52.748Z,10.10
2019-03-26T10:18:57.984Z,10.10
2019-03-26T10:20:03.172Z,10.00
2019-03-26T10:21:08.452Z,10.00
2019-03-26T10:22:13.857Z,10.00
2019-03-26T10:23:19.099Z,10.00
2019-03-26T10:24:24.322Z,10.00
2019-03-26T10:25:29.796Z,9.90
2019-03-26T10:26:34.997Z,9.90
2019-03-26T10:27:40.469Z,9.80
2019-03-26T10:28:45.819Z,9.90
2019-03-26T10:29:53.619Z,9.90
2019-03-26T10:30:58.941Z,10.10
2019-03-26T10:32:04.140Z,10.20
2019-03-26T10:33:10.189Z,10.20
2019-03-26T10:34:15.497Z,10.30
2019-03-26T10:35:20.696Z,10.50
2019-03-26T10:36:26.104Z,10.60
2019-03-26T10:37:31.485Z,10.60
2019-03-26T10:38:37.016Z,10.90
2019-03-26T10:39:42.294Z,11.10
2019-03-26T10:40:47.579Z,11.30
2019-03-26T10:41:53.203Z,11.50
2019-03-26T10:42:58.634Z,11.50
2019-03-26T10:44:03.872Z,11.50
2019-03-26T10:45:09.566Z,11.40
2019-03-26T10:46:14.764Z,11.50
2019-03-26T10:47:19.967Z,11.70
2019-03-26T10:48:25.543Z,11.60
2019-03-26T10:49:30.732Z,11.50
2019-03-26T10:50:35.948Z,11.70
2019-03-26T10:51:41.236Z,11.60
2019-03-26T10:52:46.483Z,11.80
2019-03-26T10:53:53.966Z,11.70
2019-03-26T10:54:59.163Z,11.50
2019-03-26T10:56:04.395Z,11.40
2019-03-26T10:57:09.623Z,11.50
2019-03-26T10:58:14.879Z,11.60
2019-03-26T10:59:20.072Z,11.60
2019-03-26T11:00:25.405Z,11.60
2019-03-26T11:01:30.685Z,11.50
2019-03-26T11:02:35.927Z,11.50
2019-03-26T11:03:41.155Z,11.60
2019-03-26T11:04:46.363Z,11.60
2019-03-26T11:05:53.328Z,11.60
2019-03-26T11:06:58.616Z,11.70
2019-03-26T11:08:04.013Z,11.80
2019-03-26T11:09:23.072Z,11.80
2019-03-26T11:10:16.952Z,11.70
2019-03-26T11:11:22.173Z,11.80
2019-03-26T11:12:27.527Z,11.80
2019-03-26T11:13:33.107Z,12.00
2019-03-26T11:14:38.547Z,12.00
2019-03-26T11:15:43.760Z,11.90
2019-03-26T11:16:49.018Z,12.10
2019-03-26T11:17:54.567Z,12.20
2019-03-26T11:18:59.902Z,12.30
2019-03-26T11:20:06.357Z,12.10
2019-03-26T11:21:11.683Z,11.80
2019-03-26T11:22:16.993Z,11.50
2019-03-26T11:23:22.698Z,11.40
2019-03-26T11:24:28.017Z,11.30
2019-03-26T11:25:33.230Z,11.20
2019-03-26T11:26:38.712Z,11.20
2019-03-26T11:27:44.068Z,11.10
2019-03-26T11:28:49.237Z,11.00
2019-03-26T11:29:54.822Z,11.00
2019-03-26T11:31:00.063Z,11.00
2019-03-26T11:32:05.323Z,10.90
2019-03-26T11:33:10.644Z,10.90
2019-03-26T11:34:16.075Z,10.70
2019-03-26T11:35:21.262Z,10.70
2019-03-26T11:36:26.530Z,10.70
2019-03-26T11:37:31.895Z,10.60
2019-03-26T11:38:37.468Z,10.50
2019-03-26T11:39:42.800Z,10.40
2019-03-26T11:40:48.052Z,10.40
2019-03-26T11:41:53.578Z,10.40
2019-03-26T11:42:58.771Z,10.40
2019-03-26T11:44:04.791Z,10.30
2019-03-26T11:45:11.257Z,10.40
2019-03-26T11:46:16.438Z,10.40
2019-03-26T11:47:23.155Z,10.50
2019-03-26T11:48:28.470Z,10.60
2019-03-26T11:49:33.746Z,10.80
2019-03-26T11:50:39.131Z,11.00
2019-03-26T11:51:44.582Z,11.10
2019-03-26T11:52:49.881Z,11.20
2019-03-26T11:53:55.533Z,11.30
2019-03-26T11:55:00.852Z,11.10
2019-03-26T11:56:06.209Z,10.90
2019-03-26T11:57:11.690Z,10.80
2019-03-26T11:58:29.507Z,10.50
2019-03-26T11:59:23.807Z,10.10
2019-03-26T12:00:32.237Z,9.70
2019-03-26T12:01:37.596Z,9.40
2019-03-26T12:02:42.932Z,9.20
2019-03-26T12:03:48.396Z,9.00
2019-03-26T12:04:53.659Z,8.90
2019-03-26T12:05:58.921Z,8.80
2019-03-26T12:07:04.157Z,8.70
2019-03-26T12:08:09.962Z,8.70
2019-03-26T12:09:15.314Z,8.70
2019-03-26T12:10:20.805Z,8.70
2019-03-26T12:11:26.562Z,8.60
2019-03-26T12:12:32.947Z,8.70
2019-03-26T12:13:38.241Z,8.70
2019-03-26T12:14:43.573Z,8.70
2019-03-26T12:15:48.868Z,8.60
2019-03-26T12:16:54.144Z,8.60
2019-03-26T12:17:59.377Z,8.70
2019-03-26T12:19:04.905Z,8.70
2019-03-26T12:20:10.261Z,8.80
2019-03-26T12:21:15.491Z,8.80
2019-03-26T12:22:20.785Z,8.90
2019-03-26T12:23:26.076Z,9.10
2019-03-26T12:24:31.461Z,9.20
2019-03-26T12:25:36.781Z,9.20
2019-03-26T12:26:42.117Z,9.20
2019-03-26T12:27:47.361Z,9.30
2019-03-26T12:28:52.765Z,9.40
2019-03-26T12:29:58.115Z,9.40
2019-03-26T12:31:03.690Z,9.60
2019-03-26T12:32:08.931Z,9.70
2019-03-26T12:33:14.692Z,9.90
2019-03-26T12:34:20.219Z,10.10
2019-03-26T12:35:30.507Z,10.00
2019-03-26T12:36:40.170Z,10.10
2019-03-26T12:37:43.586Z,10.20
2019-03-26T12:38:49.327Z,10.20
2019-03-26T12:39:59.762Z,10.30
2019-03-26T12:41:02.069Z,10.30
2019-03-26T12:42:07.412Z,10.30
2019-03-26T12:43:14.159Z,10.10
2019-03-26T12:44:19.813Z,10.00
2019-03-26T12:45:25.255Z,9.80
2019-03-26T12:46:30.580Z,9.60
2019-03-26T12:47:35.787Z,9.40
2019-03-26T12:48:41.227Z,9.30
2019-03-26T12:49:46.562Z,9.30
2019-03-26T12:50:51.830Z,9.20
2019-03-26T12:51:57.444Z,9.20
2019-03-26T12:53:02.752Z,9.20
2019-03-26T12:54:08.089Z,9.10
2019-03-26T12:55:13.386Z,9.10
2019-03-26T12:56:18.740Z,9.00
2019-03-26T12:57:23.956Z,9.10
2019-03-26T12:58:32.043Z,9.00
2019-03-26T12:59:35.981Z,9.00
2019-03-26T13:00:41.390Z,9.00
2019-03-26T13:01:46.819Z,9.00
2019-03-26T13:02:52.041Z,9.10
2019-03-26T13:03:57.301Z,9.10
2019-03-26T13:05:04.542Z,9.00
2019-03-26T13:06:09.844Z,9.10
2019-03-26T13:07:15.121Z,9.10
2019-03-26T13:08:20.393Z,9.30
2019-03-26T13:09:25.731Z,9.40
2019-03-26T13:10:31.088Z,9.60
2019-03-26T13:11:36.566Z,9.70
2019-03-26T13:12:41.933Z,9.70
2019-03-26T13:13:48.258Z,9.80
2019-03-26T13:14:53.457Z,9.80
2019-03-26T13:15:59.278Z,9.90
2019-03-26T13:17:04.766Z,9.90
2019-03-26T13:18:11.255Z,9.90
2019-03-26T13:19:16.921Z,10.00
2019-03-26T13:20:22.224Z,10.10
2019-03-26T13:21:27.707Z,10.20
2019-03-26T13:22:32.997Z,10.30
2019-03-26T13:23:39.096Z,10.50
2019-03-26T13:24:44.292Z,10.40
2019-03-26T13:25:49.637Z,10.30
2019-03-26T13:26:54.943Z,10.30
2019-03-26T13:28:00.353Z,10.20
2019-03-26T13:29:05.558Z,10.20
2019-03-26T13:30:11.395Z,10.10
2019-03-26T13:31:16.914Z,10.00
2019-03-26T13:32:22.270Z,9.90
2019-03-26T13:33:27.473Z,9.80
2019-03-26T13:34:32.872Z,9.90
2019-03-26T13:35:38.545Z,9.80
2019-03-26T13:36:43.877Z,9.70
2019-03-26T13:37:49.267Z,9.70
2019-03-26T13:38:54.635Z,9.50
2019-03-26T13:40:00.545Z,9.50
2019-03-26T13:41:05.811Z,9.30
2019-03-26T13:42:11.376Z,9.20
2019-03-26T13:43:16.706Z,9.10
2019-03-26T13:44:22.044Z,9.00
2019-03-26T13:45:27.268Z,8.90
2019-03-26T13:46:32.540Z,8.80
2019-03-26T13:47:37.884Z,8.70
2019-03-26T13:48:43.272Z,8.60
2019-03-26T13:49:48.580Z,8.40
2019-03-26T13:50:53.901Z,8.30
2019-03-26T13:51:59.166Z,8.30
2019-03-26T13:53:04.425Z,8.20
2019-03-26T13:54:10.101Z,8.20
2019-03-26T13:55:15.502Z,8.10
2019-03-26T13:56:21.042Z,8.10
2019-03-26T13:57:26.321Z,8.10
2019-03-26T13:58:31.702Z,8.10
2019-03-26T13:59:37.089Z,8.10
2019-03-26T14:00:42.819Z,8.10
2019-03-26T14:01:48.017Z,8.10
2019-03-26T14:02:53.389Z,8.10
2019-03-26T14:04:01.790Z,8.10
2019-03-26T14:05:11.537Z,8.30
2019-03-26T14:06:16.811Z,8.20
2019-03-26T14:07:22.175Z,8.30
2019-03-26T14:08:27.459Z,8.30
2019-03-26T14:09:33.179Z,8.30
2019-03-26T14:10:41.068Z,8.30
2019-03-26T14:11:45.782Z,8.30
2019-03-26T14:12:51.334Z,8.30
2019-03-26T14:13:57.041Z,8.20
2019-03-26T14:15:02.344Z,8.30
2019-03-26T14:16:07.674Z,8.20
2019-03-26T14:17:13.195Z,8.20
2019-03-26T14:18:18.515Z,8.20
2019-03-26T14:19:23.881Z,8.20
2019-03-26T14:20:29.288Z,8.20
2019-03-26T14:21:34.679Z,8.20
2019-03-26T14:22:40.289Z,8.20
2019-03-26T14:23:45.596Z,8.20
2019-03-26T14:24:50.874Z,8.20
2019-03-26T14:25:56.398Z,8.20